92FL weather

Carlstrom Field
Arcadia, Florida, United States

Public forecast

Using degrees Fahrenheit for public forecast. Weather courtesy of forecast.io.

Closest aviation weather report (METAR) to Carlstrom Field

Closest report is Charlotte County Airport, 14.2 nm (26.3 km) SSW. Retrieved 2020/06/06 23:53 UTC (51 minutes ago):

KPGD 062353Z 13004KT 10SM -RA BKN070 OVC090 28/25 A2993 RMK AO2 LTG DSNT W AND NW RAB15 SLP134 P0000 60000 T02780250 10311 20278 53002

Closest aviation forecast (TAF) to Carlstrom Field

Closest forecast is Charlotte County Airport, 14.2 nm (26.3 km) SSW. Retrieved 2020-06-07 00:30 UTC (14 minutes ago):

TAF KPGD 062327Z 0700/0724 15007KT 6SM BR VCSH SCT030 TEMPO 0702/0706 4SM SHRA BKN010 FM070700 14007KT P6SM VCSH SCT020 OVC030 FM071000 15007KT P6SM SCT015 BKN040 FM071100 15007KT P6SM SCT015 OVC030